createdAt,value
2022-10-06T00:01:21.215Z,99.90
2022-10-06T00:03:48.024Z,99.90
2022-10-06T00:06:14.694Z,99.90
2022-10-06T00:08:41.435Z,99.90
2022-10-06T00:11:08.141Z,99.90
2022-10-06T00:13:34.792Z,99.90
2022-10-06T00:16:02.196Z,99.90
2022-10-06T00:18:29.397Z,99.90
2022-10-06T00:20:56.312Z,99.90
2022-10-06T00:23:23.045Z,99.90
2022-10-06T00:25:49.876Z,99.90
2022-10-06T00:28:16.971Z,99.90
2022-10-06T00:30:44.000Z,99.90
2022-10-06T00:33:10.678Z,99.90
2022-10-06T00:35:37.426Z,99.90
2022-10-06T00:38:04.097Z,99.90
2022-10-06T00:40:30.769Z,99.90
2022-10-06T00:42:57.494Z,99.90
2022-10-06T00:45:24.231Z,99.90
2022-10-06T00:47:50.922Z,99.90
2022-10-06T00:50:17.685Z,99.90
2022-10-06T00:52:44.400Z,99.90
2022-10-06T00:55:11.047Z,99.90
2022-10-06T00:57:37.747Z,99.90
2022-10-06T01:00:04.433Z,99.90
2022-10-06T01:02:32.068Z,99.90
2022-10-06T01:05:00.707Z,99.90
2022-10-06T01:07:27.351Z,99.90
2022-10-06T01:09:54.105Z,99.90
2022-10-06T01:12:21.187Z,99.90
2022-10-06T01:14:48.065Z,99.90
2022-10-06T01:17:14.790Z,99.90
2022-10-06T01:19:41.443Z,99.90
2022-10-06T01:22:08.573Z,99.90
2022-10-06T01:24:35.376Z,99.90
2022-10-06T01:27:02.148Z,99.90
2022-10-06T01:29:29.008Z,99.90
2022-10-06T01:31:55.665Z,99.90
2022-10-06T01:34:22.602Z,99.90
2022-10-06T01:36:49.287Z,99.90
2022-10-06T01:39:16.589Z,99.90
2022-10-06T01:41:45.410Z,99.90
2022-10-06T01:44:12.082Z,99.90
2022-10-06T01:46:38.815Z,99.90
2022-10-06T01:49:05.561Z,99.90
2022-10-06T01:51:32.271Z,99.90
2022-10-06T01:53:58.990Z,99.90
2022-10-06T01:56:26.095Z,99.90
2022-10-06T01:58:52.776Z,99.90
2022-10-06T02:01:19.622Z,99.90
2022-10-06T02:03:46.472Z,99.90
2022-10-06T02:06:13.212Z,99.90
2022-10-06T02:08:42.340Z,99.90
2022-10-06T02:11:12.257Z,99.90
2022-10-06T02:13:41.900Z,99.90
2022-10-06T02:16:08.690Z,99.90
2022-10-06T02:18:35.477Z,99.90
2022-10-06T02:21:02.351Z,99.90
2022-10-06T02:23:29.047Z,99.90
2022-10-06T02:25:56.294Z,99.90
2022-10-06T02:28:23.295Z,99.90
2022-10-06T02:30:50.211Z,99.90
2022-10-06T02:33:17.428Z,99.90
2022-10-06T02:35:44.177Z,99.90
2022-10-06T02:38:12.643Z,99.90
2022-10-06T02:40:39.620Z,99.90
2022-10-06T02:43:06.336Z,99.90
2022-10-06T02:45:33.104Z,99.90
2022-10-06T02:47:59.803Z,99.90
2022-10-06T02:50:26.780Z,99.90
2022-10-06T02:52:53.435Z,99.90
2022-10-06T02:55:20.403Z,99.90
2022-10-06T02:57:47.059Z,99.90
2022-10-06T03:00:15.040Z,99.90
2022-10-06T03:02:42.011Z,99.90
2022-10-06T03:05:09.871Z,99.90
2022-10-06T03:07:36.739Z,99.90
2022-10-06T03:10:03.541Z,99.90
2022-10-06T03:12:30.988Z,99.90
2022-10-06T03:14:57.922Z,99.90
2022-10-06T03:17:25.032Z,99.90
2022-10-06T03:19:57.029Z,99.90
2022-10-06T03:22:24.572Z,99.90
2022-10-06T03:24:54.406Z,99.90
2022-10-06T03:27:21.645Z,99.90
2022-10-06T03:29:49.217Z,99.90
2022-10-06T03:32:16.164Z,99.90
2022-10-06T03:34:43.555Z,99.90
2022-10-06T03:37:13.316Z,99.90
2022-10-06T03:39:40.195Z,99.90
2022-10-06T03:42:07.101Z,99.90
2022-10-06T03:44:35.163Z,99.90
2022-10-06T03:47:02.768Z,99.90
2022-10-06T03:49:30.585Z,99.90
2022-10-06T03:51:57.365Z,99.90
2022-10-06T03:54:27.992Z,99.90
2022-10-06T03:56:55.589Z,99.90
2022-10-06T03:59:22.600Z,99.90
2022-10-06T04:01:50.661Z,99.90
2022-10-06T04:04:25.555Z,99.90
2022-10-06T04:06:57.982Z,99.90
2022-10-06T04:09:24.735Z,99.90
2022-10-06T04:11:52.531Z,99.90
2022-10-06T04:14:20.249Z,99.90
2022-10-06T04:16:46.991Z,99.90
2022-10-06T04:19:15.797Z,99.90
2022-10-06T04:21:45.830Z,99.90
2022-10-06T04:24:18.338Z,99.90
2022-10-06T04:26:48.861Z,99.90
2022-10-06T04:29:17.143Z,99.90
2022-10-06T04:31:46.121Z,99.90
2022-10-06T04:34:19.119Z,99.90
2022-10-06T04:36:46.794Z,99.90
2022-10-06T04:39:15.980Z,99.90
2022-10-06T04:41:47.309Z,99.90
2022-10-06T04:44:19.214Z,99.90
2022-10-06T04:46:46.827Z,99.90
2022-10-06T04:49:19.417Z,99.90
2022-10-06T04:51:47.256Z,99.90
2022-10-06T04:54:14.380Z,99.90
2022-10-06T04:56:41.124Z,99.90
2022-10-06T04:59:07.831Z,99.90
2022-10-06T05:01:37.047Z,99.90
2022-10-06T05:04:08.206Z,99.90
2022-10-06T05:06:36.059Z,99.90
2022-10-06T05:09:02.963Z,99.90
2022-10-06T05:11:31.204Z,99.90
2022-10-06T05:13:58.747Z,99.90
2022-10-06T05:16:27.800Z,99.90
2022-10-06T05:18:54.788Z,99.90
2022-10-06T05:21:21.577Z,99.90
2022-10-06T05:23:48.999Z,99.90
2022-10-06T05:26:15.745Z,99.90
2022-10-06T05:28:42.624Z,99.90
2022-10-06T05:31:09.360Z,99.90
2022-10-06T05:33:36.082Z,99.90
2022-10-06T05:36:03.370Z,99.90
2022-10-06T05:38:31.088Z,99.90
2022-10-06T05:40:58.202Z,99.90
2022-10-06T05:43:24.938Z,99.90
2022-10-06T05:45:52.528Z,99.90
2022-10-06T05:48:19.436Z,99.90
2022-10-06T05:50:46.116Z,99.90
2022-10-06T05:53:12.982Z,99.90
2022-10-06T05:55:39.674Z,99.90
2022-10-06T05:58:06.549Z,99.90
2022-10-06T06:00:33.410Z,99.90
2022-10-06T06:03:00.439Z,99.90
2022-10-06T06:05:27.288Z,99.90
2022-10-06T06:07:54.179Z,99.90
2022-10-06T06:10:21.087Z,99.90
2022-10-06T06:12:47.954Z,99.90
2022-10-06T06:15:51.757Z,99.90
2022-10-06T06:18:18.667Z,99.90
2022-10-06T06:20:45.575Z,99.90
2022-10-06T06:23:12.259Z,99.90
2022-10-06T06:25:39.204Z,99.90
2022-10-06T06:28:06.744Z,99.90
2022-10-06T06:30:33.861Z,99.90
2022-10-06T06:33:00.767Z,99.90
2022-10-06T06:35:28.354Z,99.90
2022-10-06T06:37:55.269Z,99.90
2022-10-06T06:40:22.230Z,99.90
2022-10-06T06:42:53.694Z,99.90
2022-10-06T06:45:38.543Z,99.90
2022-10-06T06:48:13.633Z,99.90
2022-10-06T06:50:41.150Z,99.90
2022-10-06T06:53:08.187Z,99.90
2022-10-06T06:55:37.021Z,99.90
2022-10-06T06:58:05.619Z,99.90
2022-10-06T07:00:36.046Z,99.90
2022-10-06T07:03:03.706Z,99.90
2022-10-06T07:05:32.367Z,99.90
2022-10-06T07:07:59.590Z,99.90
2022-10-06T07:10:28.069Z,99.90
2022-10-06T07:12:55.149Z,99.90
2022-10-06T07:15:40.803Z,99.90
2022-10-06T07:18:27.699Z,99.90
2022-10-06T07:21:13.514Z,99.90
2022-10-06T07:23:59.063Z,99.90
2022-10-06T07:26:29.068Z,99.90
2022-10-06T07:29:00.112Z,99.90
2022-10-06T07:31:33.594Z,99.90
2022-10-06T07:34:00.896Z,99.90
2022-10-06T07:36:27.547Z,99.90
2022-10-06T07:38:55.383Z,99.90
2022-10-06T07:41:22.321Z,99.90
2022-10-06T07:43:53.917Z,99.90
2022-10-06T07:46:21.354Z,99.90
2022-10-06T07:48:56.712Z,99.90
2022-10-06T07:51:24.825Z,99.90
2022-10-06T07:53:53.711Z,99.90
2022-10-06T07:56:58.523Z,99.90
2022-10-06T07:59:25.228Z,99.90
2022-10-06T08:01:52.954Z,99.90
2022-10-06T08:04:19.744Z,99.90
2022-10-06T08:06:47.683Z,99.90
2022-10-06T08:09:14.377Z,99.90
2022-10-06T08:11:41.129Z,99.90
2022-10-06T08:14:07.797Z,99.90
2022-10-06T08:16:34.594Z,99.90
2022-10-06T08:19:01.266Z,99.90
2022-10-06T08:21:29.245Z,99.90
2022-10-06T08:23:56.651Z,99.90
2022-10-06T08:26:23.310Z,99.90
2022-10-06T08:28:50.031Z,99.90
2022-10-06T08:31:17.705Z,99.90
2022-10-06T08:33:44.497Z,99.90
2022-10-06T08:36:11.209Z,99.90
2022-10-06T08:38:37.895Z,99.90
2022-10-06T08:41:04.596Z,99.90
2022-10-06T08:43:31.300Z,99.90
2022-10-06T08:45:59.775Z,99.90
2022-10-06T08:48:30.047Z,99.90
2022-10-06T08:50:57.382Z,99.90
2022-10-06T08:53:24.018Z,99.90
2022-10-06T08:55:51.328Z,99.90
2022-10-06T08:58:18.030Z,99.90
2022-10-06T09:00:44.709Z,99.90
2022-10-06T09:03:11.396Z,99.90
2022-10-06T09:05:38.047Z,99.90
2022-10-06T09:08:04.758Z,99.90
2022-10-06T09:10:31.500Z,99.90
2022-10-06T09:12:58.163Z,99.90
2022-10-06T09:15:24.913Z,99.90
2022-10-06T09:17:54.260Z,99.90
2022-10-06T09:20:22.698Z,99.90
2022-10-06T09:22:49.404Z,99.90
2022-10-06T09:25:16.160Z,99.90
2022-10-06T09:27:42.884Z,99.90
2022-10-06T09:30:09.760Z,99.90
2022-10-06T09:32:36.432Z,99.90
2022-10-06T09:35:04.691Z,99.90
2022-10-06T09:37:31.345Z,99.90
2022-10-06T09:39:58.420Z,99.90
2022-10-06T09:42:25.432Z,99.90
2022-10-06T09:44:52.492Z,99.90
2022-10-06T09:47:19.180Z,99.90
2022-10-06T09:49:47.076Z,99.90
2022-10-06T09:52:15.262Z,99.90
2022-10-06T09:54:43.345Z,99.90
2022-10-06T09:57:10.053Z,99.90
2022-10-06T09:59:40.214Z,99.90
2022-10-06T10:02:07.681Z,99.90
2022-10-06T10:04:34.350Z,99.90
2022-10-06T10:07:01.048Z,99.90
2022-10-06T10:09:27.896Z,99.90
2022-10-06T10:12:13.414Z,99.90
2022-10-06T10:14:40.130Z,99.90
2022-10-06T10:17:06.799Z,99.90
2022-10-06T10:19:33.677Z,99.90
2022-10-06T10:22:00.384Z,99.90
2022-10-06T10:24:27.038Z,99.90
2022-10-06T10:26:54.552Z,99.90
2022-10-06T10:29:21.251Z,99.90
2022-10-06T10:31:50.749Z,99.90
2022-10-06T10:34:24.422Z,99.90
2022-10-06T10:36:51.704Z,99.90
2022-10-06T10:39:18.364Z,99.90
2022-10-06T10:41:45.049Z,99.90
2022-10-06T10:44:12.492Z,99.90
2022-10-06T10:46:39.289Z,99.90
2022-10-06T10:49:05.977Z,99.90
2022-10-06T10:51:32.926Z,99.90
2022-10-06T10:54:00.293Z,99.90
2022-10-06T10:56:26.954Z,99.90
2022-10-06T10:58:53.737Z,99.90
2022-10-06T11:01:20.426Z,99.70
2022-10-06T11:03:56.641Z,99.90
2022-10-06T11:06:23.485Z,99.70
2022-10-06T11:08:50.169Z,99.20
2022-10-06T11:11:16.862Z,99.20
2022-10-06T11:13:43.525Z,99.20
2022-10-06T11:16:12.143Z,99.40
2022-10-06T11:18:38.887Z,98.70
2022-10-06T11:21:06.093Z,99.00
2022-10-06T11:23:32.926Z,98.30
2022-10-06T11:25:59.613Z,98.50
2022-10-06T11:28:26.377Z,98.30
2022-10-06T11:30:53.078Z,98.40
2022-10-06T11:33:19.783Z,98.30
2022-10-06T11:35:46.448Z,98.00
2022-10-06T11:38:13.222Z,98.10
2022-10-06T11:40:39.954Z,97.90
2022-10-06T11:43:07.045Z,98.10
2022-10-06T11:45:35.285Z,98.20
2022-10-06T11:48:02.023Z,97.80
2022-10-06T11:50:28.729Z,98.00
2022-10-06T11:52:55.877Z,97.90
2022-10-06T11:55:23.998Z,97.50
2022-10-06T11:57:50.718Z,97.70
2022-10-06T12:00:17.534Z,97.60
2022-10-06T12:02:44.419Z,97.30
2022-10-06T12:05:35.090Z,97.50
2022-10-06T12:07:57.986Z,97.50
2022-10-06T12:10:24.658Z,97.20
2022-10-06T12:13:06.065Z,97.00
2022-10-06T12:18:19.991Z,96.60
2022-10-06T12:20:46.738Z,96.50
2022-10-06T12:23:13.573Z,96.60
2022-10-06T12:25:40.264Z,96.70
2022-10-06T12:28:09.851Z,96.50
2022-10-06T12:30:36.586Z,96.20
2022-10-06T12:33:05.761Z,96.20
2022-10-06T12:35:32.489Z,96.50
2022-10-06T12:38:04.759Z,96.40
2022-10-06T12:40:31.699Z,96.80
2022-10-06T12:42:58.431Z,96.00
2022-10-06T12:45:25.091Z,96.20
2022-10-06T12:47:51.776Z,96.20
2022-10-06T12:50:19.056Z,95.60
2022-10-06T12:52:46.148Z,95.90
2022-10-06T12:55:12.860Z,96.30
2022-10-06T12:57:39.580Z,95.90
2022-10-06T13:00:06.596Z,95.70
2022-10-06T13:02:33.407Z,96.10
2022-10-06T13:05:01.017Z,95.70
2022-10-06T13:07:28.864Z,95.80
2022-10-06T13:09:55.792Z,95.70
2022-10-06T13:12:22.503Z,95.30
2022-10-06T13:14:49.172Z,95.50
2022-10-06T13:17:15.879Z,95.90
2022-10-06T13:19:43.805Z,95.60
2022-10-06T13:22:10.520Z,95.40
2022-10-06T13:24:37.551Z,95.50
2022-10-06T13:27:04.225Z,95.60
2022-10-06T13:29:31.839Z,95.30
2022-10-06T13:31:58.562Z,95.60
2022-10-06T13:34:25.264Z,95.50
2022-10-06T13:36:51.973Z,95.70
2022-10-06T13:39:18.653Z,95.90
2022-10-06T13:41:45.380Z,95.80
2022-10-06T13:44:12.046Z,95.60
2022-10-06T13:46:40.023Z,95.90
2022-10-06T13:49:08.679Z,96.00
2022-10-06T13:51:35.463Z,95.70
2022-10-06T13:54:02.175Z,95.80
2022-10-06T13:59:00.462Z,95.50
2022-10-06T14:01:27.215Z,95.50
2022-10-06T14:03:54.213Z,95.10
2022-10-06T14:06:21.991Z,94.90
2022-10-06T14:08:48.672Z,94.80
2022-10-06T14:11:15.390Z,94.90
2022-10-06T14:13:42.396Z,94.60
2022-10-06T14:16:09.230Z,94.60
2022-10-06T14:18:35.949Z,94.80
2022-10-06T14:21:02.640Z,94.90
2022-10-06T14:23:29.323Z,94.90
2022-10-06T14:25:56.073Z,95.00
2022-10-06T14:28:22.829Z,95.00
2022-10-06T14:30:49.558Z,95.00
2022-10-06T14:33:17.221Z,95.20
2022-10-06T14:35:43.897Z,95.20
2022-10-06T14:38:10.790Z,95.50
2022-10-06T14:40:37.442Z,95.60
2022-10-06T14:43:04.150Z,95.30
2022-10-06T14:45:36.028Z,95.10
2022-10-06T14:48:04.444Z,95.20
2022-10-06T14:50:31.709Z,95.40
2022-10-06T14:53:00.022Z,95.60
2022-10-06T14:55:29.179Z,95.70
2022-10-06T14:57:55.829Z,95.80
2022-10-06T15:00:22.580Z,95.70
2022-10-06T15:02:49.354Z,95.70
2022-10-06T15:05:16.109Z,95.80
2022-10-06T15:08:01.625Z,96.00
2022-10-06T15:10:28.331Z,96.20
2022-10-06T15:12:57.169Z,96.30
2022-10-06T15:15:23.868Z,96.20
2022-10-06T15:17:50.520Z,96.50
2022-10-06T15:20:17.355Z,96.50
2022-10-06T15:22:44.100Z,96.50
2022-10-06T15:25:33.552Z,96.30
2022-10-06T15:28:22.801Z,96.50
2022-10-06T15:30:50.546Z,96.40
2022-10-06T15:33:17.271Z,96.60
2022-10-06T15:35:44.042Z,96.60
2022-10-06T15:38:10.734Z,96.70
2022-10-06T15:40:37.420Z,96.90
2022-10-06T15:43:04.309Z,97.00
2022-10-06T15:45:30.994Z,97.10
2022-10-06T15:47:57.652Z,97.20
2022-10-06T15:50:24.361Z,97.40
2022-10-06T15:52:51.253Z,97.40
2022-10-06T15:55:17.900Z,97.60
2022-10-06T15:57:44.608Z,97.60
2022-10-06T16:00:11.291Z,97.60
2022-10-06T16:02:40.919Z,97.70
2022-10-06T16:05:07.711Z,98.00
2022-10-06T16:07:35.231Z,98.10
2022-10-06T16:10:02.021Z,98.30
2022-10-06T16:12:28.872Z,98.20
2022-10-06T16:14:55.538Z,98.20
2022-10-06T16:17:22.238Z,98.30
2022-10-06T16:19:49.011Z,98.20
2022-10-06T16:22:16.015Z,98.20
2022-10-06T16:24:42.683Z,98.30
2022-10-06T16:27:09.361Z,98.40
2022-10-06T16:29:36.046Z,98.50
2022-10-06T16:32:02.814Z,98.70
2022-10-06T16:34:31.402Z,98.60
2022-10-06T16:36:58.204Z,98.70
2022-10-06T16:39:26.959Z,98.70
2022-10-06T16:41:54.619Z,98.50
2022-10-06T16:44:21.431Z,98.50
2022-10-06T16:46:48.124Z,98.30
2022-10-06T16:49:15.118Z,98.20
2022-10-06T16:51:42.061Z,98.20
2022-10-06T16:54:08.997Z,98.40
2022-10-06T16:56:35.672Z,98.30
2022-10-06T16:59:04.732Z,98.10
2022-10-06T17:01:31.424Z,98.20
2022-10-06T17:03:58.190Z,98.30
2022-10-06T17:06:24.885Z,98.20
2022-10-06T17:08:51.548Z,98.30
2022-10-06T17:11:21.134Z,98.40
2022-10-06T17:13:47.917Z,98.90
2022-10-06T17:16:14.589Z,98.90
2022-10-06T17:18:41.649Z,99.00
2022-10-06T17:21:32.275Z,99.10
2022-10-06T17:23:56.176Z,99.30
2022-10-06T17:26:23.576Z,99.30
2022-10-06T17:28:50.236Z,99.50
2022-10-06T17:31:16.981Z,99.60
2022-10-06T17:33:43.727Z,99.90
2022-10-06T17:36:10.576Z,99.90
2022-10-06T17:38:37.479Z,99.90
2022-10-06T17:41:07.688Z,99.90
2022-10-06T17:43:34.371Z,99.90
2022-10-06T17:46:01.055Z,99.90
2022-10-06T17:48:29.211Z,99.90
2022-10-06T17:50:55.912Z,99.90
2022-10-06T17:53:23.376Z,99.90
2022-10-06T17:55:50.371Z,99.90
2022-10-06T17:58:18.794Z,99.90
2022-10-06T18:00:45.713Z,99.90
2022-10-06T18:03:12.486Z,99.90
2022-10-06T18:05:40.300Z,99.90
2022-10-06T18:08:09.020Z,99.90
2022-10-06T18:10:57.811Z,99.90
2022-10-06T18:13:26.393Z,99.90
2022-10-06T18:15:53.177Z,99.90
2022-10-06T18:18:25.265Z,99.90
2022-10-06T18:20:52.839Z,99.90
2022-10-06T18:23:19.501Z,99.90
2022-10-06T18:25:46.813Z,99.90
2022-10-06T18:28:13.605Z,99.90
2022-10-06T18:30:40.409Z,99.90
2022-10-06T18:38:41.555Z,99.90
2022-10-06T18:41:08.349Z,99.90
2022-10-06T18:43:35.064Z,99.90
2022-10-06T18:46:20.296Z,99.90
2022-10-06T18:48:56.428Z,99.90
2022-10-06T18:51:23.189Z,99.90
2022-10-06T18:53:49.861Z,99.90
2022-10-06T18:56:17.159Z,99.90
2022-10-06T18:58:47.272Z,99.90
2022-10-06T19:01:14.395Z,99.90
2022-10-06T19:03:41.191Z,99.90
2022-10-06T19:06:07.950Z,99.90
2022-10-06T19:08:34.571Z,99.90
2022-10-06T19:11:19.765Z,99.90
2022-10-06T19:13:47.398Z,99.90
2022-10-06T19:16:14.450Z,99.90
2022-10-06T19:18:42.034Z,99.90
2022-10-06T19:21:09.901Z,99.90
2022-10-06T19:23:36.804Z,99.90
2022-10-06T19:26:03.492Z,99.90
2022-10-06T19:28:33.060Z,99.90
2022-10-06T19:30:59.938Z,99.90
2022-10-06T19:33:26.846Z,99.90
2022-10-06T19:35:54.291Z,99.90
2022-10-06T19:38:21.039Z,99.90
2022-10-06T19:40:47.722Z,99.90
2022-10-06T19:43:14.717Z,99.90
2022-10-06T19:45:41.401Z,99.90
2022-10-06T19:48:10.544Z,99.90
2022-10-06T19:50:38.363Z,99.90
2022-10-06T19:53:05.020Z,99.90
2022-10-06T19:55:31.931Z,99.90
2022-10-06T19:58:00.074Z,99.90
2022-10-06T20:00:26.792Z,99.90
2022-10-06T20:02:53.441Z,99.90
2022-10-06T20:05:20.117Z,99.90
2022-10-06T20:07:47.085Z,99.90
2022-10-06T20:10:14.034Z,99.90
2022-10-06T20:12:41.632Z,99.90
2022-10-06T20:15:09.947Z,99.90
2022-10-06T20:17:36.648Z,99.90
2022-10-06T20:20:04.358Z,99.90
2022-10-06T20:22:31.783Z,99.90
2022-10-06T20:24:58.564Z,99.90
2022-10-06T20:27:25.273Z,99.90
2022-10-06T20:29:51.936Z,99.90
2022-10-06T20:32:18.589Z,99.90
2022-10-06T20:34:45.372Z,99.90
2022-10-06T20:37:12.045Z,99.90
2022-10-06T20:39:57.550Z,99.90
2022-10-06T20:42:24.231Z,99.90
2022-10-06T20:44:50.906Z,99.90
2022-10-06T20:47:17.632Z,99.90
2022-10-06T20:49:44.623Z,99.90
2022-10-06T20:52:14.436Z,99.90
2022-10-06T20:54:41.611Z,99.90
2022-10-06T20:57:09.490Z,99.90
2022-10-06T20:59:36.494Z,99.90
2022-10-06T21:02:03.250Z,99.90
2022-10-06T21:04:30.265Z,99.90
2022-10-06T21:06:57.293Z,99.90
2022-10-06T21:09:28.627Z,99.90
2022-10-06T21:11:57.413Z,99.90
2022-10-06T21:14:24.215Z,99.90
2022-10-06T21:16:50.936Z,99.90
2022-10-06T21:19:17.667Z,99.90
2022-10-06T21:21:45.790Z,99.90
2022-10-06T21:24:12.539Z,99.90
2022-10-06T21:26:39.277Z,99.90
2022-10-06T21:29:07.297Z,99.90
2022-10-06T21:31:34.058Z,99.90
2022-10-06T21:34:01.467Z,99.90
2022-10-06T21:36:28.175Z,99.90
2022-10-06T21:38:54.916Z,99.90
2022-10-06T21:41:37.124Z,99.90
2022-10-06T21:44:03.882Z,99.90
2022-10-06T21:46:31.011Z,99.90
2022-10-06T21:48:57.864Z,99.90
2022-10-06T21:51:24.855Z,99.90
2022-10-06T21:53:51.859Z,99.90
2022-10-06T21:56:18.626Z,99.90
2022-10-06T21:58:45.347Z,99.90
2022-10-06T22:01:12.142Z,99.90
2022-10-06T22:03:38.993Z,99.90
2022-10-06T22:06:05.842Z,99.90
2022-10-06T22:08:32.502Z,99.90
2022-10-06T22:10:59.229Z,99.90
2022-10-06T22:13:25.917Z,99.90
2022-10-06T22:15:52.685Z,99.90
2022-10-06T22:18:19.373Z,99.90
2022-10-06T22:20:46.051Z,99.90
2022-10-06T22:23:12.779Z,99.90
2022-10-06T22:25:39.529Z,99.90
2022-10-06T22:28:06.293Z,99.90
2022-10-06T22:30:33.016Z,99.90
2022-10-06T22:32:59.919Z,99.90
2022-10-06T22:35:26.630Z,99.90
2022-10-06T22:37:53.405Z,99.90
2022-10-06T22:40:20.115Z,99.90
2022-10-06T22:42:46.860Z,99.90
2022-10-06T22:45:13.552Z,99.90
2022-10-06T22:47:40.267Z,99.90
2022-10-06T22:50:07.402Z,99.90
2022-10-06T22:52:34.098Z,99.90
2022-10-06T22:55:00.841Z,99.90
2022-10-06T22:57:27.569Z,99.90
2022-10-06T22:59:54.317Z,99.90
2022-10-06T23:02:21.235Z,99.90
2022-10-06T23:04:47.946Z,99.90
2022-10-06T23:07:14.619Z,99.90
2022-10-06T23:09:41.906Z,99.90
2022-10-06T23:12:08.610Z,99.90
2022-10-06T23:14:35.365Z,99.90
2022-10-06T23:17:02.059Z,99.90
2022-10-06T23:19:28.784Z,99.90
2022-10-06T23:21:55.508Z,99.90
2022-10-06T23:24:22.222Z,99.90
2022-10-06T23:26:48.933Z,99.90
2022-10-06T23:29:15.613Z,99.90
2022-10-06T23:31:42.343Z,99.90
2022-10-06T23:34:09.059Z,99.90
2022-10-06T23:36:35.753Z,99.90
2022-10-06T23:39:02.427Z,99.90
2022-10-06T23:41:29.146Z,99.90
2022-10-06T23:43:55.830Z,99.90
2022-10-06T23:46:22.603Z,99.90
2022-10-06T23:48:49.362Z,99.90
2022-10-06T23:51:16.051Z,99.90
2022-10-06T23:53:43.410Z,99.90
2022-10-06T23:56:10.210Z,99.90
2022-10-06T23:58:36.917Z,99.90
